sensor_id;sensor_type;location;lat;lon;timestamp;P1;durP1;ratioP1;P2;durP2;ratioP2
13969;SDS011;7057;49.984;8.404;2024-01-10T00:00:14;25.47;;;15.50;;
13969;SDS011;7057;49.984;8.404;2024-01-10T00:02:42;21.73;;;14.80;;
13969;SDS011;7057;49.984;8.404;2024-01-10T00:05:09;22.63;;;14.47;;
13969;SDS011;7057;49.984;8.404;2024-01-10T00:07:37;25.77;;;14.37;;
13969;SDS011;7057;49.984;8.404;2024-01-10T00:10:04;21.50;;;13.23;;
13969;SDS011;7057;49.984;8.404;2024-01-10T00:12:32;21.23;;;14.30;;
13969;SDS011;7057;49.984;8.404;2024-01-10T00:15:02;23.43;;;14.37;;
13969;SDS011;7057;49.984;8.404;2024-01-10T00:17:31;26.30;;;13.53;;
13969;SDS011;7057;49.984;8.404;2024-01-10T00:19:58;25.27;;;15.47;;
13969;SDS011;7057;49.984;8.404;2024-01-10T00:22:26;27.80;;;16.10;;
13969;SDS011;7057;49.984;8.404;2024-01-10T00:24:53;24.67;;;15.00;;
13969;SDS011;7057;49.984;8.404;2024-01-10T00:27:21;25.80;;;14.93;;
13969;SDS011;7057;49.984;8.404;2024-01-10T00:29:48;30.30;;;17.20;;
13969;SDS011;7057;49.984;8.404;2024-01-10T00:32:17;29.60;;;17.50;;
13969;SDS011;7057;49.984;8.404;2024-01-10T00:34:46;26.87;;;16.40;;
13969;SDS011;7057;49.984;8.404;2024-01-10T00:37:13;26.03;;;14.40;;
13969;SDS011;7057;49.984;8.404;2024-01-10T00:39:41;28.63;;;16.83;;
13969;SDS011;7057;49.984;8.404;2024-01-10T00:42:08;27.57;;;17.27;;
13969;SDS011;7057;49.984;8.404;2024-01-10T00:44:36;27.97;;;15.90;;
13969;SDS011;7057;49.984;8.404;2024-01-10T00:47:04;30.53;;;17.83;;
13969;SDS011;7057;49.984;8.404;2024-01-10T00:49:32;27.33;;;17.27;;
13969;SDS011;7057;49.984;8.404;2024-01-10T00:52:01;26.43;;;16.70;;
13969;SDS011;7057;49.984;8.404;2024-01-10T00:54:28;28.37;;;15.90;;
13969;SDS011;7057;49.984;8.404;2024-01-10T00:56:56;29.20;;;17.37;;
13969;SDS011;7057;49.984;8.404;2024-01-10T00:59:23;24.13;;;14.77;;
13969;SDS011;7057;49.984;8.404;2024-01-10T01:01:50;30.50;;;18.23;;
13969;SDS011;7057;49.984;8.404;2024-01-10T01:04:18;20.40;;;11.33;;
13969;SDS011;7057;49.984;8.404;2024-01-10T01:06:46;29.93;;;18.17;;
13969;SDS011;7057;49.984;8.404;2024-01-10T01:09:14;27.67;;;17.13;;
13969;SDS011;7057;49.984;8.404;2024-01-10T01:11:42;30.10;;;17.17;;
13969;SDS011;7057;49.984;8.404;2024-01-10T01:14:10;26.83;;;13.40;;
13969;SDS011;7057;49.984;8.404;2024-01-10T01:16:37;27.17;;;16.93;;
13969;SDS011;7057;49.984;8.404;2024-01-10T01:19:04;30.13;;;18.07;;
13969;SDS011;7057;49.984;8.404;2024-01-10T01:21:32;29.27;;;18.17;;
13969;SDS011;7057;49.984;8.404;2024-01-10T01:23:59;29.80;;;17.33;;
13969;SDS011;7057;49.984;8.404;2024-01-10T01:26:28;30.03;;;18.00;;
13969;SDS011;7057;49.984;8.404;2024-01-10T01:28:56;29.93;;;18.47;;
13969;SDS011;7057;49.984;8.404;2024-01-10T01:31:23;32.80;;;18.07;;
13969;SDS011;7057;49.984;8.404;2024-01-10T01:33:51;29.20;;;18.23;;
13969;SDS011;7057;49.984;8.404;2024-01-10T01:36:18;21.77;;;10.67;;
13969;SDS011;7057;49.984;8.404;2024-01-10T01:38:46;29.53;;;17.33;;
13969;SDS011;7057;49.984;8.404;2024-01-10T01:41:13;32.17;;;17.90;;
13969;SDS011;7057;49.984;8.404;2024-01-10T01:43:42;28.73;;;18.03;;
13969;SDS011;7057;49.984;8.404;2024-01-10T01:46:10;28.70;;;17.80;;
13969;SDS011;7057;49.984;8.404;2024-01-10T01:48:37;22.53;;;12.57;;
13969;SDS011;7057;49.984;8.404;2024-01-10T01:51:05;29.60;;;16.60;;
13969;SDS011;7057;49.984;8.404;2024-01-10T01:53:33;30.63;;;18.43;;
13969;SDS011;7057;49.984;8.404;2024-01-10T01:56:02;31.43;;;18.43;;
13969;SDS011;7057;49.984;8.404;2024-01-10T01:58:30;24.50;;;15.60;;
13969;SDS011;7057;49.984;8.404;2024-01-10T02:00:58;30.40;;;18.57;;
13969;SDS011;7057;49.984;8.404;2024-01-10T02:03:26;34.33;;;20.00;;
13969;SDS011;7057;49.984;8.404;2024-01-10T02:05:54;34.40;;;18.43;;
13969;SDS011;7057;49.984;8.404;2024-01-10T02:08:22;32.50;;;17.90;;
13969;SDS011;7057;49.984;8.404;2024-01-10T02:10:49;33.13;;;18.83;;
13969;SDS011;7057;49.984;8.404;2024-01-10T02:13:17;29.00;;;18.30;;
13969;SDS011;7057;49.984;8.404;2024-01-10T02:15:45;32.50;;;20.03;;
13969;SDS011;7057;49.984;8.404;2024-01-10T02:18:14;32.60;;;19.70;;
13969;SDS011;7057;49.984;8.404;2024-01-10T02:20:43;36.93;;;21.57;;
13969;SDS011;7057;49.984;8.404;2024-01-10T02:23:10;30.30;;;16.23;;
13969;SDS011;7057;49.984;8.404;2024-01-10T02:25:39;33.00;;;18.70;;
13969;SDS011;7057;49.984;8.404;2024-01-10T02:28:07;33.93;;;20.63;;
13969;SDS011;7057;49.984;8.404;2024-01-10T02:30:35;32.13;;;18.70;;
13969;SDS011;7057;49.984;8.404;2024-01-10T02:33:03;35.20;;;20.27;;
13969;SDS011;7057;49.984;8.404;2024-01-10T02:35:30;33.77;;;19.57;;
13969;SDS011;7057;49.984;8.404;2024-01-10T02:37:58;29.40;;;17.40;;
13969;SDS011;7057;49.984;8.404;2024-01-10T02:40:26;36.37;;;20.20;;
13969;SDS011;7057;49.984;8.404;2024-01-10T02:42:55;33.87;;;20.13;;
13969;SDS011;7057;49.984;8.404;2024-01-10T02:45:22;30.47;;;17.17;;
13969;SDS011;7057;49.984;8.404;2024-01-10T02:47:50;35.63;;;20.73;;
13969;SDS011;7057;49.984;8.404;2024-01-10T02:50:17;37.63;;;20.80;;
13969;SDS011;7057;49.984;8.404;2024-01-10T02:52:44;30.17;;;17.63;;
13969;SDS011;7057;49.984;8.404;2024-01-10T02:55:12;34.67;;;21.10;;
13969;SDS011;7057;49.984;8.404;2024-01-10T02:57:39;37.03;;;20.87;;
13969;SDS011;7057;49.984;8.404;2024-01-10T03:00:09;34.03;;;19.93;;
13969;SDS011;7057;49.984;8.404;2024-01-10T03:02:36;37.17;;;22.77;;
13969;SDS011;7057;49.984;8.404;2024-01-10T03:05:04;37.60;;;21.23;;
13969;SDS011;7057;49.984;8.404;2024-01-10T03:07:32;31.63;;;18.87;;
13969;SDS011;7057;49.984;8.404;2024-01-10T03:09:59;37.67;;;20.73;;
13969;SDS011;7057;49.984;8.404;2024-01-10T03:12:27;35.47;;;22.67;;
13969;SDS011;7057;49.984;8.404;2024-01-10T03:14:54;33.73;;;19.43;;
13969;SDS011;7057;49.984;8.404;2024-01-10T03:17:23;35.57;;;20.80;;
13969;SDS011;7057;49.984;8.404;2024-01-10T03:19:50;36.70;;;21.17;;
13969;SDS011;7057;49.984;8.404;2024-01-10T03:22:18;33.83;;;20.13;;
13969;SDS011;7057;49.984;8.404;2024-01-10T03:24:45;37.27;;;20.70;;
13969;SDS011;7057;49.984;8.404;2024-01-10T03:27:13;33.07;;;19.50;;
13969;SDS011;7057;49.984;8.404;2024-01-10T03:29:40;34.20;;;21.23;;
13969;SDS011;7057;49.984;8.404;2024-01-10T03:32:08;34.60;;;21.53;;
13969;SDS011;7057;49.984;8.404;2024-01-10T03:34:37;34.13;;;19.33;;
13969;SDS011;7057;49.984;8.404;2024-01-10T03:37:04;35.97;;;21.63;;
13969;SDS011;7057;49.984;8.404;2024-01-10T03:39:32;36.10;;;20.37;;
13969;SDS011;7057;49.984;8.404;2024-01-10T03:41:59;37.67;;;21.77;;
13969;SDS011;7057;49.984;8.404;2024-01-10T03:44:27;38.43;;;20.20;;
13969;SDS011;7057;49.984;8.404;2024-01-10T03:46:54;35.63;;;21.13;;
13969;SDS011;7057;49.984;8.404;2024-01-10T03:49:22;34.97;;;21.20;;
13969;SDS011;7057;49.984;8.404;2024-01-10T03:51:51;33.30;;;19.27;;
13969;SDS011;7057;49.984;8.404;2024-01-10T03:54:18;36.43;;;19.73;;
13969;SDS011;7057;49.984;8.404;2024-01-10T03:56:46;30.40;;;16.77;;
13969;SDS011;7057;49.984;8.404;2024-01-10T03:59:13;36.20;;;20.63;;
13969;SDS011;7057;49.984;8.404;2024-01-10T04:01:41;35.47;;;21.10;;
13969;SDS011;7057;49.984;8.404;2024-01-10T04:04:08;30.57;;;17.70;;
13969;SDS011;7057;49.984;8.404;2024-01-10T04:06:36;37.67;;;21.83;;
13969;SDS011;7057;49.984;8.404;2024-01-10T04:09:04;34.93;;;21.20;;
13969;SDS011;7057;49.984;8.404;2024-01-10T04:11:33;36.13;;;20.77;;
13969;SDS011;7057;49.984;8.404;2024-01-10T04:14:01;41.23;;;20.77;;
13969;SDS011;7057;49.984;8.404;2024-01-10T04:16:29;36.10;;;21.73;;
13969;SDS011;7057;49.984;8.404;2024-01-10T04:18:56;38.63;;;22.33;;
13969;SDS011;7057;49.984;8.404;2024-01-10T04:21:24;36.10;;;20.63;;
13969;SDS011;7057;49.984;8.404;2024-01-10T04:23:51;30.93;;;18.90;;
13969;SDS011;7057;49.984;8.404;2024-01-10T04:26:20;35.53;;;19.60;;
13969;SDS011;7057;49.984;8.404;2024-01-10T04:28:48;38.33;;;22.07;;
13969;SDS011;7057;49.984;8.404;2024-01-10T04:31:15;33.97;;;18.67;;
13969;SDS011;7057;49.984;8.404;2024-01-10T04:33:43;30.87;;;19.07;;
13969;SDS011;7057;49.984;8.404;2024-01-10T04:36:10;35.07;;;20.80;;
13969;SDS011;7057;49.984;8.404;2024-01-10T04:38:38;35.73;;;21.00;;
13969;SDS011;7057;49.984;8.404;2024-01-10T04:41:05;35.03;;;20.50;;
13969;SDS011;7057;49.984;8.404;2024-01-10T04:43:34;34.27;;;20.90;;
13969;SDS011;7057;49.984;8.404;2024-01-10T04:46:01;30.37;;;17.10;;
13969;SDS011;7057;49.984;8.404;2024-01-10T04:48:29;37.93;;;21.37;;
13969;SDS011;7057;49.984;8.404;2024-01-10T04:50:56;30.10;;;16.90;;
13969;SDS011;7057;49.984;8.404;2024-01-10T04:53:24;33.00;;;19.23;;
13969;SDS011;7057;49.984;8.404;2024-01-10T04:55:51;35.77;;;22.33;;
13969;SDS011;7057;49.984;8.404;2024-01-10T04:58:19;32.97;;;19.33;;
13969;SDS011;7057;49.984;8.404;2024-01-10T05:00:47;31.47;;;16.27;;
13969;SDS011;7057;49.984;8.404;2024-01-10T05:03:15;35.07;;;21.30;;
13969;SDS011;7057;49.984;8.404;2024-01-10T05:05:43;37.77;;;22.80;;
13969;SDS011;7057;49.984;8.404;2024-01-10T05:08:10;35.40;;;18.77;;
13969;SDS011;7057;49.984;8.404;2024-01-10T05:10:38;42.77;;;22.87;;
13969;SDS011;7057;49.984;8.404;2024-01-10T05:13:05;32.93;;;20.03;;
13969;SDS011;7057;49.984;8.404;2024-01-10T05:15:33;33.70;;;20.77;;
13969;SDS011;7057;49.984;8.404;2024-01-10T05:18:02;37.73;;;21.57;;
13969;SDS011;7057;49.984;8.404;2024-01-10T05:20:29;39.47;;;22.87;;
13969;SDS011;7057;49.984;8.404;2024-01-10T05:22:57;32.47;;;20.37;;
13969;SDS011;7057;49.984;8.404;2024-01-10T05:25:24;35.83;;;19.67;;
13969;SDS011;7057;49.984;8.404;2024-01-10T05:27:52;34.17;;;20.60;;
13969;SDS011;7057;49.984;8.404;2024-01-10T05:30:20;29.83;;;19.17;;
13969;SDS011;7057;49.984;8.404;2024-01-10T05:32:47;37.37;;;22.07;;
13969;SDS011;7057;49.984;8.404;2024-01-10T05:35:16;37.87;;;21.70;;
13969;SDS011;7057;49.984;8.404;2024-01-10T05:37:44;33.70;;;18.33;;
13969;SDS011;7057;49.984;8.404;2024-01-10T05:40:11;35.70;;;21.13;;
13969;SDS011;7057;49.984;8.404;2024-01-10T05:42:39;32.93;;;17.53;;
13969;SDS011;7057;49.984;8.404;2024-01-10T05:45:06;36.67;;;22.50;;
13969;SDS011;7057;49.984;8.404;2024-01-10T05:47:34;33.57;;;20.97;;
13969;SDS011;7057;49.984;8.404;2024-01-10T05:50:02;31.93;;;18.07;;
13969;SDS011;7057;49.984;8.404;2024-01-10T05:52:32;35.97;;;22.67;;
13969;SDS011;7057;49.984;8.404;2024-01-10T05:55:00;36.47;;;21.13;;
13969;SDS011;7057;49.984;8.404;2024-01-10T05:57:28;34.43;;;21.80;;
13969;SDS011;7057;49.984;8.404;2024-01-10T05:59:56;39.60;;;21.87;;
13969;SDS011;7057;49.984;8.404;2024-01-10T06:02:23;38.37;;;21.73;;
13969;SDS011;7057;49.984;8.404;2024-01-10T06:04:51;36.83;;;20.73;;
13969;SDS011;7057;49.984;8.404;2024-01-10T06:07:18;31.83;;;17.43;;
13969;SDS011;7057;49.984;8.404;2024-01-10T06:09:47;35.20;;;18.87;;
13969;SDS011;7057;49.984;8.404;2024-01-10T06:12:15;36.73;;;20.70;;
13969;SDS011;7057;49.984;8.404;2024-01-10T06:14:43;35.40;;;19.83;;
13969;SDS011;7057;49.984;8.404;2024-01-10T06:17:10;36.40;;;20.33;;
13969;SDS011;7057;49.984;8.404;2024-01-10T06:19:38;35.57;;;21.10;;
13969;SDS011;7057;49.984;8.404;2024-01-10T06:22:05;36.63;;;21.33;;
13969;SDS011;7057;49.984;8.404;2024-01-10T06:24:33;35.17;;;19.97;;
13969;SDS011;7057;49.984;8.404;2024-01-10T06:27:01;35.87;;;20.47;;
13969;SDS011;7057;49.984;8.404;2024-01-10T06:29:29;32.33;;;19.50;;
13969;SDS011;7057;49.984;8.404;2024-01-10T06:31:57;36.30;;;20.27;;
13969;SDS011;7057;49.984;8.404;2024-01-10T06:34:26;35.87;;;20.97;;
13969;SDS011;7057;49.984;8.404;2024-01-10T06:36:53;32.27;;;18.90;;
13969;SDS011;7057;49.984;8.404;2024-01-10T06:39:22;33.80;;;19.77;;
13969;SDS011;7057;49.984;8.404;2024-01-10T06:41:50;33.30;;;20.67;;
13969;SDS011;7057;49.984;8.404;2024-01-10T06:44:18;36.43;;;20.37;;
13969;SDS011;7057;49.984;8.404;2024-01-10T06:46:46;32.30;;;17.40;;
13969;SDS011;7057;49.984;8.404;2024-01-10T06:49:13;37.07;;;21.00;;
13969;SDS011;7057;49.984;8.404;2024-01-10T06:51:41;36.67;;;20.00;;
13969;SDS011;7057;49.984;8.404;2024-01-10T06:54:09;34.13;;;20.67;;
13969;SDS011;7057;49.984;8.404;2024-01-10T06:56:36;32.60;;;19.70;;
13969;SDS011;7057;49.984;8.404;2024-01-10T06:59:04;36.07;;;20.53;;
13969;SDS011;7057;49.984;8.404;2024-01-10T07:01:33;33.30;;;18.60;;
13969;SDS011;7057;49.984;8.404;2024-01-10T07:04:00;33.17;;;18.63;;
13969;SDS011;7057;49.984;8.404;2024-01-10T07:06:30;34.87;;;20.33;;
13969;SDS011;7057;49.984;8.404;2024-01-10T07:08:57;37.37;;;24.57;;
13969;SDS011;7057;49.984;8.404;2024-01-10T07:11:25;33.43;;;21.30;;
13969;SDS011;7057;49.984;8.404;2024-01-10T07:13:54;33.07;;;21.30;;
13969;SDS011;7057;49.984;8.404;2024-01-10T07:16:21;32.83;;;21.37;;
13969;SDS011;7057;49.984;8.404;2024-01-10T07:18:52;33.70;;;20.23;;
13969;SDS011;7057;49.984;8.404;2024-01-10T07:21:19;37.20;;;21.30;;
13969;SDS011;7057;49.984;8.404;2024-01-10T07:23:47;34.17;;;20.20;;
13969;SDS011;7057;49.984;8.404;2024-01-10T07:26:15;28.30;;;15.47;;
13969;SDS011;7057;49.984;8.404;2024-01-10T07:28:43;38.37;;;20.43;;
13969;SDS011;7057;49.984;8.404;2024-01-10T07:31:11;35.20;;;19.73;;
13969;SDS011;7057;49.984;8.404;2024-01-10T07:33:38;35.00;;;20.20;;
13969;SDS011;7057;49.984;8.404;2024-01-10T07:36:07;34.90;;;19.20;;
13969;SDS011;7057;49.984;8.404;2024-01-10T07:38:35;34.67;;;17.53;;
13969;SDS011;7057;49.984;8.404;2024-01-10T07:41:02;34.47;;;19.70;;
13969;SDS011;7057;49.984;8.404;2024-01-10T07:43:30;35.50;;;20.20;;
13969;SDS011;7057;49.984;8.404;2024-01-10T07:45:57;38.57;;;23.03;;
13969;SDS011;7057;49.984;8.404;2024-01-10T07:48:26;35.57;;;21.10;;
13969;SDS011;7057;49.984;8.404;2024-01-10T07:50:55;33.60;;;20.20;;
13969;SDS011;7057;49.984;8.404;2024-01-10T07:53:24;37.90;;;22.00;;
13969;SDS011;7057;49.984;8.404;2024-01-10T07:55:52;36.73;;;20.37;;
13969;SDS011;7057;49.984;8.404;2024-01-10T07:58:19;40.07;;;21.13;;
13969;SDS011;7057;49.984;8.404;2024-01-10T08:00:47;35.30;;;20.63;;
13969;SDS011;7057;49.984;8.404;2024-01-10T08:03:14;37.03;;;21.57;;
13969;SDS011;7057;49.984;8.404;2024-01-10T08:05:42;32.23;;;20.63;;
13969;SDS011;7057;49.984;8.404;2024-01-10T08:08:09;36.10;;;20.97;;
13969;SDS011;7057;49.984;8.404;2024-01-10T08:10:40;33.90;;;20.20;;
13969;SDS011;7057;49.984;8.404;2024-01-10T08:13:07;31.43;;;19.67;;
13969;SDS011;7057;49.984;8.404;2024-01-10T08:15:36;39.53;;;21.00;;
13969;SDS011;7057;49.984;8.404;2024-01-10T08:18:03;35.03;;;21.13;;
13969;SDS011;7057;49.984;8.404;2024-01-10T08:20:32;31.57;;;16.97;;
13969;SDS011;7057;49.984;8.404;2024-01-10T08:23:00;35.87;;;21.03;;
13969;SDS011;7057;49.984;8.404;2024-01-10T08:25:27;36.40;;;21.50;;
13969;SDS011;7057;49.984;8.404;2024-01-10T08:27:56;37.23;;;21.53;;
13969;SDS011;7057;49.984;8.404;2024-01-10T08:30:24;36.67;;;21.37;;
13969;SDS011;7057;49.984;8.404;2024-01-10T08:32:51;37.80;;;21.67;;
13969;SDS011;7057;49.984;8.404;2024-01-10T08:35:19;38.33;;;22.83;;
13969;SDS011;7057;49.984;8.404;2024-01-10T08:37:47;38.53;;;22.37;;
13969;SDS011;7057;49.984;8.404;2024-01-10T08:40:14;37.37;;;21.73;;
13969;SDS011;7057;49.984;8.404;2024-01-10T08:42:42;36.90;;;21.67;;
13969;SDS011;7057;49.984;8.404;2024-01-10T08:45:11;34.17;;;20.97;;
13969;SDS011;7057;49.984;8.404;2024-01-10T08:47:40;36.23;;;21.70;;
13969;SDS011;7057;49.984;8.404;2024-01-10T08:50:10;36.47;;;21.67;;
13969;SDS011;7057;49.984;8.404;2024-01-10T08:52:38;39.13;;;20.93;;
13969;SDS011;7057;49.984;8.404;2024-01-10T08:55:05;37.60;;;22.47;;
13969;SDS011;7057;49.984;8.404;2024-01-10T08:57:33;34.63;;;20.97;;
13969;SDS011;7057;49.984;8.404;2024-01-10T09:00:01;37.53;;;21.77;;
13969;SDS011;7057;49.984;8.404;2024-01-10T09:02:33;35.07;;;20.63;;
13969;SDS011;7057;49.984;8.404;2024-01-10T09:05:02;34.90;;;21.33;;
13969;SDS011;7057;49.984;8.404;2024-01-10T09:07:29;36.10;;;22.30;;
13969;SDS011;7057;49.984;8.404;2024-01-10T09:09:57;37.60;;;21.80;;
13969;SDS011;7057;49.984;8.404;2024-01-10T09:12:24;34.40;;;22.10;;
13969;SDS011;7057;49.984;8.404;2024-01-10T09:14:52;35.03;;;22.67;;
13969;SDS011;7057;49.984;8.404;2024-01-10T09:17:20;35.03;;;21.40;;
13969;SDS011;7057;49.984;8.404;2024-01-10T09:19:48;37.97;;;20.83;;
13969;SDS011;7057;49.984;8.404;2024-01-10T09:22:16;34.77;;;20.50;;
13969;SDS011;7057;49.984;8.404;2024-01-10T09:24:44;28.87;;;15.87;;
13969;SDS011;7057;49.984;8.404;2024-01-10T09:27:11;36.77;;;21.13;;
13969;SDS011;7057;49.984;8.404;2024-01-10T09:29:39;39.40;;;21.43;;
13969;SDS011;7057;49.984;8.404;2024-01-10T09:32:06;36.37;;;21.53;;
13969;SDS011;7057;49.984;8.404;2024-01-10T09:34:34;29.23;;;15.87;;
13969;SDS011;7057;49.984;8.404;2024-01-10T09:37:03;34.83;;;21.50;;
13969;SDS011;7057;49.984;8.404;2024-01-10T09:39:30;38.33;;;21.70;;
13969;SDS011;7057;49.984;8.404;2024-01-10T09:41:58;33.87;;;20.77;;
13969;SDS011;7057;49.984;8.404;2024-01-10T09:44:26;33.73;;;21.10;;
13969;SDS011;7057;49.984;8.404;2024-01-10T09:46:55;37.30;;;20.47;;
13969;SDS011;7057;49.984;8.404;2024-01-10T09:49:22;36.87;;;23.00;;
13969;SDS011;7057;49.984;8.404;2024-01-10T09:51:52;36.23;;;22.23;;
13969;SDS011;7057;49.984;8.404;2024-01-10T09:54:22;39.07;;;22.07;;
13969;SDS011;7057;49.984;8.404;2024-01-10T09:56:51;35.23;;;21.00;;
13969;SDS011;7057;49.984;8.404;2024-01-10T09:59:21;29.97;;;17.23;;
13969;SDS011;7057;49.984;8.404;2024-01-10T10:01:48;34.27;;;21.97;;
13969;SDS011;7057;49.984;8.404;2024-01-10T10:04:16;35.13;;;22.03;;
13969;SDS011;7057;49.984;8.404;2024-01-10T10:06:44;34.87;;;20.83;;
13969;SDS011;7057;49.984;8.404;2024-01-10T10:09:12;30.27;;;17.13;;
13969;SDS011;7057;49.984;8.404;2024-01-10T10:11:41;37.47;;;22.23;;
13969;SDS011;7057;49.984;8.404;2024-01-10T10:14:15;35.90;;;22.23;;
13969;SDS011;7057;49.984;8.404;2024-01-10T10:16:43;38.03;;;22.77;;
13969;SDS011;7057;49.984;8.404;2024-01-10T10:19:10;39.10;;;23.10;;
13969;SDS011;7057;49.984;8.404;2024-01-10T10:21:38;39.23;;;22.10;;
13969;SDS011;7057;49.984;8.404;2024-01-10T10:24:07;37.73;;;21.17;;
13969;SDS011;7057;49.984;8.404;2024-01-10T10:26:35;38.27;;;22.13;;
13969;SDS011;7057;49.984;8.404;2024-01-10T10:29:04;37.63;;;22.90;;
13969;SDS011;7057;49.984;8.404;2024-01-10T10:31:32;35.57;;;22.47;;
13969;SDS011;7057;49.984;8.404;2024-01-10T10:33:59;37.43;;;22.73;;
13969;SDS011;7057;49.984;8.404;2024-01-10T10:36:27;36.50;;;22.90;;
13969;SDS011;7057;49.984;8.404;2024-01-10T10:38:58;35.37;;;22.80;;
13969;SDS011;7057;49.984;8.404;2024-01-10T10:41:28;40.73;;;21.87;;
13969;SDS011;7057;49.984;8.404;2024-01-10T10:43:57;37.43;;;22.67;;
13969;SDS011;7057;49.984;8.404;2024-01-10T10:46:27;35.90;;;21.97;;
13969;SDS011;7057;49.984;8.404;2024-01-10T10:48:57;36.83;;;21.63;;
13969;SDS011;7057;49.984;8.404;2024-01-10T10:51:27;34.03;;;21.93;;
13969;SDS011;7057;49.984;8.404;2024-01-10T10:53:58;30.77;;;18.60;;
13969;SDS011;7057;49.984;8.404;2024-01-10T10:56:27;35.50;;;22.40;;
13969;SDS011;7057;49.984;8.404;2024-01-10T10:58:56;34.17;;;21.13;;
13969;SDS011;7057;49.984;8.404;2024-01-10T11:01:24;38.80;;;21.93;;
13969;SDS011;7057;49.984;8.404;2024-01-10T11:03:53;37.30;;;19.53;;
13969;SDS011;7057;49.984;8.404;2024-01-10T11:06:22;36.63;;;21.67;;
13969;SDS011;7057;49.984;8.404;2024-01-10T11:08:50;34.50;;;21.30;;
13969;SDS011;7057;49.984;8.404;2024-01-10T11:11:22;35.67;;;21.80;;
13969;SDS011;7057;49.984;8.404;2024-01-10T11:14:09;34.67;;;21.97;;
13969;SDS011;7057;49.984;8.404;2024-01-10T11:16:44;36.87;;;23.77;;
13969;SDS011;7057;49.984;8.404;2024-01-10T11:19:22;37.13;;;22.23;;
13969;SDS011;7057;49.984;8.404;2024-01-10T11:21:56;35.73;;;22.00;;
13969;SDS011;7057;49.984;8.404;2024-01-10T11:24:27;34.40;;;21.93;;
13969;SDS011;7057;49.984;8.404;2024-01-10T11:27:06;32.27;;;18.97;;
13969;SDS011;7057;49.984;8.404;2024-01-10T11:29:36;32.70;;;21.30;;
13969;SDS011;7057;49.984;8.404;2024-01-10T11:32:05;36.23;;;20.93;;
13969;SDS011;7057;49.984;8.404;2024-01-10T11:34:36;37.87;;;22.27;;
13969;SDS011;7057;49.984;8.404;2024-01-10T11:37:10;36.27;;;21.47;;
13969;SDS011;7057;49.984;8.404;2024-01-10T11:39:40;38.57;;;22.57;;
13969;SDS011;7057;49.984;8.404;2024-01-10T11:42:07;33.83;;;21.67;;
13969;SDS011;7057;49.984;8.404;2024-01-10T11:44:46;35.67;;;21.73;;
13969;SDS011;7057;49.984;8.404;2024-01-10T11:47:15;36.27;;;21.60;;
13969;SDS011;7057;49.984;8.404;2024-01-10T11:49:54;35.80;;;22.33;;
13969;SDS011;7057;49.984;8.404;2024-01-10T11:52:22;34.27;;;21.77;;
13969;SDS011;7057;49.984;8.404;2024-01-10T11:54:50;31.60;;;17.53;;
13969;SDS011;7057;49.984;8.404;2024-01-10T11:57:20;36.27;;;22.77;;
13969;SDS011;7057;49.984;8.404;2024-01-10T11:59:50;36.23;;;21.60;;
13969;SDS011;7057;49.984;8.404;2024-01-10T12:02:18;34.23;;;21.73;;
13969;SDS011;7057;49.984;8.404;2024-01-10T12:04:45;35.97;;;21.90;;
13969;SDS011;7057;49.984;8.404;2024-01-10T12:07:14;35.00;;;21.13;;
13969;SDS011;7057;49.984;8.404;2024-01-10T12:09:42;33.50;;;20.73;;
13969;SDS011;7057;49.984;8.404;2024-01-10T12:12:10;33.63;;;20.53;;
13969;SDS011;7057;49.984;8.404;2024-01-10T12:14:37;33.40;;;21.13;;
13969;SDS011;7057;49.984;8.404;2024-01-10T12:17:05;34.53;;;21.87;;
13969;SDS011;7057;49.984;8.404;2024-01-10T12:19:33;38.80;;;23.30;;
13969;SDS011;7057;49.984;8.404;2024-01-10T12:22:01;32.03;;;21.13;;
13969;SDS011;7057;49.984;8.404;2024-01-10T12:24:30;35.43;;;20.83;;
13969;SDS011;7057;49.984;8.404;2024-01-10T12:26:57;36.70;;;21.03;;
13969;SDS011;7057;49.984;8.404;2024-01-10T12:29:25;32.20;;;20.27;;
13969;SDS011;7057;49.984;8.404;2024-01-10T12:31:53;32.97;;;21.23;;
13969;SDS011;7057;49.984;8.404;2024-01-10T12:34:20;31.13;;;20.03;;
13969;SDS011;7057;49.984;8.404;2024-01-10T12:36:48;33.03;;;20.00;;
13969;SDS011;7057;49.984;8.404;2024-01-10T12:39:15;31.40;;;20.27;;
13969;SDS011;7057;49.984;8.404;2024-01-10T12:41:44;31.90;;;19.63;;
13969;SDS011;7057;49.984;8.404;2024-01-10T12:44:12;27.13;;;17.27;;
13969;SDS011;7057;49.984;8.404;2024-01-10T12:46:49;26.03;;;17.80;;
13969;SDS011;7057;49.984;8.404;2024-01-10T12:49:17;29.40;;;18.90;;
13969;SDS011;7057;49.984;8.404;2024-01-10T12:51:46;30.03;;;17.93;;
13969;SDS011;7057;49.984;8.404;2024-01-10T12:54:13;31.73;;;19.03;;
13969;SDS011;7057;49.984;8.404;2024-01-10T12:56:40;26.87;;;16.63;;
13969;SDS011;7057;49.984;8.404;2024-01-10T12:59:09;27.47;;;17.27;;
13969;SDS011;7057;49.984;8.404;2024-01-10T13:01:36;26.83;;;17.27;;
13969;SDS011;7057;49.984;8.404;2024-01-10T13:04:04;26.87;;;17.70;;
13969;SDS011;7057;49.984;8.404;2024-01-10T13:06:32;27.63;;;18.07;;
13969;SDS011;7057;49.984;8.404;2024-01-10T13:08:59;28.40;;;18.53;;
13969;SDS011;7057;49.984;8.404;2024-01-10T13:11:27;29.03;;;18.03;;
13969;SDS011;7057;49.984;8.404;2024-01-10T13:13:55;24.60;;;17.00;;
13969;SDS011;7057;49.984;8.404;2024-01-10T13:16:24;21.83;;;14.97;;
13969;SDS011;7057;49.984;8.404;2024-01-10T13:18:51;25.17;;;16.13;;
13969;SDS011;7057;49.984;8.404;2024-01-10T13:21:20;22.73;;;14.87;;
13969;SDS011;7057;49.984;8.404;2024-01-10T13:23:47;26.83;;;17.63;;
13969;SDS011;7057;49.984;8.404;2024-01-10T13:26:16;25.27;;;15.37;;
13969;SDS011;7057;49.984;8.404;2024-01-10T13:28:44;20.73;;;13.60;;
13969;SDS011;7057;49.984;8.404;2024-01-10T13:31:11;24.63;;;16.80;;
13969;SDS011;7057;49.984;8.404;2024-01-10T13:33:41;27.87;;;18.50;;
13969;SDS011;7057;49.984;8.404;2024-01-10T13:36:08;30.83;;;18.03;;
13969;SDS011;7057;49.984;8.404;2024-01-10T13:38:35;26.10;;;16.10;;
13969;SDS011;7057;49.984;8.404;2024-01-10T13:41:03;25.17;;;16.10;;
13969;SDS011;7057;49.984;8.404;2024-01-10T13:43:31;26.03;;;17.53;;
13969;SDS011;7057;49.984;8.404;2024-01-10T13:45:59;29.40;;;18.80;;
13969;SDS011;7057;49.984;8.404;2024-01-10T13:48:27;29.07;;;18.97;;
13969;SDS011;7057;49.984;8.404;2024-01-10T13:50:56;28.57;;;18.87;;
13969;SDS011;7057;49.984;8.404;2024-01-10T13:53:23;29.70;;;18.40;;
13969;SDS011;7057;49.984;8.404;2024-01-10T13:55:51;30.43;;;20.37;;
13969;SDS011;7057;49.984;8.404;2024-01-10T13:58:18;28.80;;;18.00;;
13969;SDS011;7057;49.984;8.404;2024-01-10T14:00:49;25.13;;;17.13;;
13969;SDS011;7057;49.984;8.404;2024-01-10T14:03:16;28.30;;;16.17;;
13969;SDS011;7057;49.984;8.404;2024-01-10T14:05:44;28.03;;;16.20;;
13969;SDS011;7057;49.984;8.404;2024-01-10T14:08:13;29.30;;;17.27;;
13969;SDS011;7057;49.984;8.404;2024-01-10T14:10:41;29.90;;;18.97;;
13969;SDS011;7057;49.984;8.404;2024-01-10T14:13:08;26.00;;;16.97;;
13969;SDS011;7057;49.984;8.404;2024-01-10T14:15:36;23.10;;;16.43;;
13969;SDS011;7057;49.984;8.404;2024-01-10T14:18:04;27.80;;;18.17;;
13969;SDS011;7057;49.984;8.404;2024-01-10T14:20:32;27.20;;;17.13;;
13969;SDS011;7057;49.984;8.404;2024-01-10T14:23:01;27.27;;;17.30;;
13969;SDS011;7057;49.984;8.404;2024-01-10T14:25:30;28.70;;;17.73;;
13969;SDS011;7057;49.984;8.404;2024-01-10T14:27:57;26.70;;;17.57;;
13969;SDS011;7057;49.984;8.404;2024-01-10T14:30:25;26.97;;;15.83;;
13969;SDS011;7057;49.984;8.404;2024-01-10T14:32:53;26.77;;;17.30;;
13969;SDS011;7057;49.984;8.404;2024-01-10T14:35:20;27.07;;;15.40;;
13969;SDS011;7057;49.984;8.404;2024-01-10T14:37:48;27.47;;;16.77;;